N388LD WSSL-VVTS
Flight info
| Callsign | N388LD |
|---|---|
| Flight time | 1h 31m |
| Altitude | 45000 |
| Route | VMR M771 DUDIS/K0930F450 L644 CN W9 NIXIV NIXIV5J |
| Aircraft | GLF6/M-SBDE2E3FGHIJ4J5M1RWXY/LB1D1 |
Departure
| Time | 2026-04-26 01:09 |
|---|---|
| Airport | Seletar Airport (WSSL) |
Arrival
| Time | 2026-04-26 02:40 |
|---|---|
| Airport | Tan Son Nhat International Airport (VVTS) |
| Time | Latitude | Longitude | Altitude | Speed | Heading |
|---|---|---|---|---|---|
| 2026-04-26 00:57 | 1.42013 | 103.86724 | 49 ft | 0 kts | 123° |
| 2026-04-26 01:05 | 1.42011 | 103.86726 | 49 ft | 3 kts | 123° |
| 2026-04-26 01:05 | 1.41949 | 103.86746 | 49 ft | 19 kts | 211° |
| 2026-04-26 01:06 | 1.41803 | 103.86647 | 49 ft | 27 kts | 211° |
| 2026-04-26 01:06 | 1.41649 | 103.86549 | 49 ft | 25 kts | 214° |
| 2026-04-26 01:06 | 1.41539 | 103.86560 | 49 ft | 17 kts | 118° |
| 2026-04-26 01:06 | 1.41532 | 103.86660 | 49 ft | 18 kts | 34° |
| 2026-04-26 01:07 | 1.41500 | 103.86771 | 49 ft | 19 kts | 123° |
| 2026-04-26 01:07 | 1.41383 | 103.86749 | 49 ft | 23 kts | 213° |
| 2026-04-26 01:07 | 1.41229 | 103.86649 | 49 ft | 26 kts | 213° |
| 2026-04-26 01:07 | 1.41074 | 103.86548 | 49 ft | 25 kts | 213° |
| 2026-04-26 01:08 | 1.40926 | 103.86452 | 49 ft | 25 kts | 213° |
| 2026-04-26 01:08 | 1.40808 | 103.86374 | 49 ft | 6 kts | 215° |
| 2026-04-26 01:08 | 1.40795 | 103.86323 | 49 ft | 12 kts | 298° |
| 2026-04-26 01:08 | 1.40871 | 103.86236 | 49 ft | 22 kts | 351° |
| 2026-04-26 01:09 | 1.41036 | 103.86332 | 49 ft | 47 kts | 35° |
| 2026-04-26 01:09 | 1.41626 | 103.86719 | 70 ft | 149 kts | 33° |
| 2026-04-26 01:09 | 1.42500 | 103.87299 | 1056 ft | 162 kts | 33° |
| 2026-04-26 01:09 | 1.43587 | 103.88012 | 1746 ft | 213 kts | 33° |
| 2026-04-26 01:10 | 1.44785 | 103.88788 | 2347 ft | 192 kts | 33° |
| 2026-04-26 01:10 | 1.45958 | 103.89542 | 3107 ft | 217 kts | 34° |
| 2026-04-26 01:10 | 1.47301 | 103.90392 | 3848 ft | 247 kts | 33° |
| 2026-04-26 01:10 | 1.48829 | 103.91344 | 4596 ft | 267 kts | 31° |
| 2026-04-26 01:11 | 1.50635 | 103.91795 | 5317 ft | 271 kts | 1° |
| 2026-04-26 01:11 | 1.52500 | 103.91630 | 6058 ft | 273 kts | 357° |
| 2026-04-26 01:11 | 1.54405 | 103.91420 | 6762 ft | 275 kts | 357° |
| 2026-04-26 01:11 | 1.56318 | 103.91205 | 7468 ft | 278 kts | 357° |
| 2026-04-26 01:12 | 1.58221 | 103.91000 | 8172 ft | 280 kts | 359° |
| 2026-04-26 01:12 | 1.60183 | 103.90891 | 8894 ft | 284 kts | 0° |
| 2026-04-26 01:12 | 1.62167 | 103.90789 | 9603 ft | 288 kts | 1° |
| 2026-04-26 01:12 | 1.64188 | 103.90691 | 10335 ft | 298 kts | 0° |
| 2026-04-26 01:13 | 1.66363 | 103.90589 | 11073 ft | 323 kts | 0° |
| 2026-04-26 01:13 | 1.68649 | 103.90480 | 11791 ft | 344 kts | 0° |
| 2026-04-26 01:13 | 1.71130 | 103.90363 | 12538 ft | 363 kts | 0° |
| 2026-04-26 01:13 | 1.73701 | 103.90242 | 13270 ft | 379 kts | 360° |
| 2026-04-26 01:14 | 1.76391 | 103.90113 | 13997 ft | 390 kts | 0° |
| 2026-04-26 01:14 | 1.79096 | 103.89983 | 14687 ft | 392 kts | 0° |
| 2026-04-26 01:14 | 1.81850 | 103.89853 | 15383 ft | 393 kts | 0° |
| 2026-04-26 01:14 | 1.84570 | 103.89725 | 16069 ft | 396 kts | 1° |
| 2026-04-26 01:15 | 1.87364 | 103.89594 | 16801 ft | 406 kts | 1° |
| 2026-04-26 01:15 | 1.90172 | 103.89461 | 17823 ft | 408 kts | 1° |
| 2026-04-26 01:15 | 1.93064 | 103.89326 | 18702 ft | 416 kts | 1° |
| 2026-04-26 01:15 | 1.95947 | 103.89191 | 19591 ft | 422 kts | 1° |
| 2026-04-26 01:16 | 1.98914 | 103.89051 | 20548 ft | 427 kts | 0° |
| 2026-04-26 01:16 | 2.01893 | 103.88911 | 21389 ft | 434 kts | 0° |
| 2026-04-26 01:16 | 2.04942 | 103.88766 | 22263 ft | 441 kts | 1° |
| 2026-04-26 01:16 | 2.08043 | 103.88620 | 23175 ft | 446 kts | 0° |
| 2026-04-26 01:17 | 2.11119 | 103.88475 | 24102 ft | 451 kts | 0° |
| 2026-04-26 01:17 | 2.14279 | 103.88326 | 24971 ft | 457 kts | 0° |
| 2026-04-26 01:17 | 2.17493 | 103.88175 | 25908 ft | 462 kts | 0° |
| 2026-04-26 01:17 | 2.20724 | 103.88023 | 26796 ft | 466 kts | 0° |
| 2026-04-26 01:18 | 2.23974 | 103.87869 | 27571 ft | 473 kts | 360° |
| 2026-04-26 01:18 | 2.27276 | 103.87714 | 28332 ft | 478 kts | 360° |
| 2026-04-26 01:18 | 2.30626 | 103.87556 | 29090 ft | 483 kts | 359° |
| 2026-04-26 01:18 | 2.34027 | 103.87395 | 29759 ft | 490 kts | 359° |
| 2026-04-26 01:19 | 2.37435 | 103.87415 | 30364 ft | 492 kts | 9° |
| 2026-04-26 01:19 | 2.40698 | 103.88419 | 30971 ft | 493 kts | 27° |
| 2026-04-26 01:19 | 2.43660 | 103.90163 | 31605 ft | 496 kts | 33° |
| 2026-04-26 01:19 | 2.46620 | 103.92001 | 32146 ft | 502 kts | 33° |
| 2026-04-26 01:20 | 2.49584 | 103.93845 | 32627 ft | 509 kts | 33° |
| 2026-04-26 01:20 | 2.52643 | 103.95749 | 33195 ft | 515 kts | 33° |
| 2026-04-26 01:20 | 2.55668 | 103.97630 | 34103 ft | 513 kts | 33° |
| 2026-04-26 01:20 | 2.58665 | 103.99496 | 35101 ft | 509 kts | 33° |
| 2026-04-26 01:21 | 2.61682 | 104.01373 | 36019 ft | 506 kts | 33° |
| 2026-04-26 01:21 | 2.64666 | 104.03231 | 36789 ft | 506 kts | 33° |
| 2026-04-26 01:21 | 2.67651 | 104.05089 | 37565 ft | 505 kts | 33° |
| 2026-04-26 01:21 | 2.70634 | 104.06946 | 38334 ft | 504 kts | 33° |
| 2026-04-26 01:22 | 2.73593 | 104.08788 | 39140 ft | 503 kts | 33° |
| 2026-04-26 01:22 | 2.76539 | 104.10622 | 40020 ft | 500 kts | 33° |
| 2026-04-26 01:22 | 2.79447 | 104.12434 | 40863 ft | 498 kts | 32° |
| 2026-04-26 01:22 | 2.82405 | 104.14275 | 41630 ft | 497 kts | 32° |
| 2026-04-26 01:23 | 2.85314 | 104.16087 | 42376 ft | 495 kts | 32° |
| 2026-04-26 01:23 | 2.88230 | 104.17902 | 43094 ft | 494 kts | 32° |
| 2026-04-26 01:23 | 2.91138 | 104.19713 | 43745 ft | 492 kts | 32° |
| 2026-04-26 01:23 | 2.94045 | 104.21523 | 44449 ft | 490 kts | 32° |
| 2026-04-26 01:24 | 2.96934 | 104.23323 | 44935 ft | 491 kts | 32° |
| 2026-04-26 01:24 | 2.99860 | 104.25146 | 44875 ft | 498 kts | 32° |
| 2026-04-26 01:24 | 3.05773 | 104.28831 | 44890 ft | 501 kts | 32° |
| 2026-04-26 01:25 | 3.11683 | 104.32582 | 44879 ft | 503 kts | 33° |
| 2026-04-26 01:25 | 3.17599 | 104.36276 | 44878 ft | 503 kts | 32° |
| 2026-04-26 01:26 | 3.23554 | 104.39972 | 44884 ft | 504 kts | 32° |
| 2026-04-26 01:26 | 3.29519 | 104.43675 | 44884 ft | 504 kts | 32° |
| 2026-04-26 01:27 | 3.35450 | 104.47358 | 44885 ft | 503 kts | 32° |
| 2026-04-26 01:27 | 3.41428 | 104.51071 | 44887 ft | 503 kts | 32° |
| 2026-04-26 01:28 | 3.47382 | 104.54769 | 44878 ft | 503 kts | 32° |
| 2026-04-26 01:28 | 3.53330 | 104.58466 | 44888 ft | 503 kts | 32° |
| 2026-04-26 01:29 | 3.59312 | 104.62184 | 44891 ft | 504 kts | 32° |
| 2026-04-26 01:29 | 3.65262 | 104.65882 | 44895 ft | 504 kts | 32° |
| 2026-04-26 01:30 | 3.71229 | 104.69592 | 44895 ft | 504 kts | 32° |
| 2026-04-26 01:30 | 3.77184 | 104.73294 | 44895 ft | 504 kts | 32° |
| 2026-04-26 01:31 | 3.83129 | 104.76992 | 44890 ft | 504 kts | 32° |
| 2026-04-26 01:31 | 3.89120 | 104.80720 | 44888 ft | 505 kts | 32° |
| 2026-04-26 01:32 | 3.95079 | 104.84428 | 44881 ft | 505 kts | 32° |
| 2026-04-26 01:32 | 4.01023 | 104.88129 | 44881 ft | 505 kts | 32° |
| 2026-04-26 01:33 | 4.07018 | 104.91861 | 44882 ft | 506 kts | 32° |
| 2026-04-26 01:33 | 4.13026 | 104.95602 | 44883 ft | 507 kts | 32° |
| 2026-04-26 01:34 | 4.19003 | 104.99324 | 44882 ft | 506 kts | 32° |
| 2026-04-26 01:34 | 4.24993 | 105.03049 | 44887 ft | 506 kts | 32° |
| 2026-04-26 01:35 | 4.30968 | 105.06760 | 44883 ft | 506 kts | 32° |
| 2026-04-26 01:35 | 4.36983 | 105.10499 | 44882 ft | 507 kts | 32° |
| 2026-04-26 01:36 | 4.42970 | 105.14220 | 44886 ft | 508 kts | 32° |
| 2026-04-26 01:37 | 4.52011 | 105.19840 | 44882 ft | 511 kts | 32° |
| 2026-04-26 01:37 | 4.58044 | 105.23592 | 44884 ft | 511 kts | 32° |
| 2026-04-26 01:38 | 4.64073 | 105.27342 | 44881 ft | 510 kts | 32° |
| 2026-04-26 01:38 | 4.70104 | 105.31094 | 44884 ft | 509 kts | 32° |
| 2026-04-26 01:39 | 4.76161 | 105.34863 | 44882 ft | 509 kts | 32° |
| 2026-04-26 01:39 | 4.82169 | 105.38625 | 44881 ft | 510 kts | 33° |
| 2026-04-26 01:40 | 4.88126 | 105.42506 | 44882 ft | 511 kts | 33° |
| 2026-04-26 01:40 | 4.94091 | 105.46389 | 44882 ft | 511 kts | 33° |
| 2026-04-26 01:41 | 5.00039 | 105.50261 | 44885 ft | 511 kts | 33° |
| 2026-04-26 01:41 | 5.06023 | 105.54157 | 44877 ft | 511 kts | 33° |
| 2026-04-26 01:42 | 5.11972 | 105.58031 | 44884 ft | 511 kts | 33° |
| 2026-04-26 01:42 | 5.17973 | 105.61940 | 44881 ft | 511 kts | 33° |
| 2026-04-26 01:43 | 5.23897 | 105.65800 | 44882 ft | 511 kts | 33° |
| 2026-04-26 01:43 | 5.29892 | 105.69707 | 44892 ft | 511 kts | 33° |
| 2026-04-26 01:44 | 5.35828 | 105.73576 | 44891 ft | 511 kts | 33° |
| 2026-04-26 01:44 | 5.41794 | 105.77467 | 44896 ft | 511 kts | 33° |
| 2026-04-26 01:45 | 5.47780 | 105.81370 | 44900 ft | 510 kts | 33° |
| 2026-04-26 01:45 | 5.53712 | 105.85239 | 44901 ft | 510 kts | 33° |
| 2026-04-26 01:46 | 5.59687 | 105.89138 | 44902 ft | 511 kts | 33° |
| 2026-04-26 01:46 | 5.65632 | 105.93018 | 44903 ft | 511 kts | 33° |
| 2026-04-26 01:47 | 5.71618 | 105.96925 | 44903 ft | 512 kts | 33° |
| 2026-04-26 01:47 | 5.77598 | 106.00830 | 44901 ft | 512 kts | 33° |
| 2026-04-26 01:48 | 5.83566 | 106.04728 | 44903 ft | 512 kts | 33° |
| 2026-04-26 01:48 | 5.89523 | 106.08620 | 44898 ft | 511 kts | 33° |
| 2026-04-26 01:49 | 5.95483 | 106.12515 | 44893 ft | 511 kts | 33° |
| 2026-04-26 01:49 | 6.01465 | 106.16424 | 44886 ft | 512 kts | 33° |
| 2026-04-26 01:50 | 6.07435 | 106.20328 | 44892 ft | 513 kts | 33° |
| 2026-04-26 01:50 | 6.13412 | 106.24237 | 44879 ft | 514 kts | 33° |
| 2026-04-26 01:51 | 6.19386 | 106.28145 | 44888 ft | 514 kts | 33° |
| 2026-04-26 01:51 | 6.25389 | 106.32072 | 44890 ft | 514 kts | 33° |
| 2026-04-26 01:52 | 6.31410 | 106.36013 | 44883 ft | 514 kts | 33° |
| 2026-04-26 01:52 | 6.37380 | 106.39922 | 44886 ft | 514 kts | 33° |
| 2026-04-26 01:53 | 6.43385 | 106.43854 | 44889 ft | 515 kts | 33° |
| 2026-04-26 01:53 | 6.49408 | 106.47800 | 44894 ft | 515 kts | 33° |
| 2026-04-26 01:54 | 6.55417 | 106.51737 | 44884 ft | 516 kts | 33° |
| 2026-04-26 01:54 | 6.61435 | 106.55682 | 44884 ft | 516 kts | 33° |
| 2026-04-26 01:55 | 6.67427 | 106.59611 | 44885 ft | 516 kts | 33° |
| 2026-04-26 01:55 | 6.73447 | 106.63559 | 44883 ft | 517 kts | 33° |
| 2026-04-26 01:56 | 6.79485 | 106.67520 | 44882 ft | 517 kts | 33° |
| 2026-04-26 01:56 | 6.85523 | 106.71483 | 44883 ft | 517 kts | 33° |
| 2026-04-26 01:57 | 6.91544 | 106.75435 | 44882 ft | 517 kts | 33° |
| 2026-04-26 01:57 | 6.97590 | 106.79316 | 44856 ft | 517 kts | 26° |
| 2026-04-26 01:57 | 7.01018 | 106.80416 | 44929 ft | 512 kts | 8° |
| 2026-04-26 01:58 | 7.04567 | 106.80489 | 44892 ft | 510 kts | 354° |
| 2026-04-26 01:58 | 7.11653 | 106.79769 | 44910 ft | 513 kts | 353° |
| 2026-04-26 01:59 | 7.18788 | 106.79018 | 44880 ft | 515 kts | 353° |
| 2026-04-26 01:59 | 7.25903 | 106.78267 | 44886 ft | 515 kts | 353° |
| 2026-04-26 02:00 | 7.33046 | 106.77512 | 44896 ft | 515 kts | 353° |
| 2026-04-26 02:00 | 7.40195 | 106.76757 | 44902 ft | 514 kts | 353° |
| 2026-04-26 02:01 | 7.47311 | 106.76005 | 44902 ft | 514 kts | 353° |
| 2026-04-26 02:01 | 7.54428 | 106.75253 | 44904 ft | 514 kts | 353° |
| 2026-04-26 02:02 | 7.61575 | 106.74496 | 44905 ft | 514 kts | 353° |
| 2026-04-26 02:02 | 7.68661 | 106.73746 | 44905 ft | 514 kts | 353° |
| 2026-04-26 02:03 | 7.75820 | 106.72988 | 44903 ft | 514 kts | 353° |
| 2026-04-26 02:03 | 7.82920 | 106.72237 | 44903 ft | 514 kts | 353° |
| 2026-04-26 02:04 | 7.90039 | 106.71482 | 44905 ft | 514 kts | 353° |
| 2026-04-26 02:04 | 7.92892 | 106.71180 | 44903 ft | 514 kts | 353° |
| 2026-04-26 02:07 | 7.95265 | 106.70928 | 44882 ft | 511 kts | 353° |
| 2026-04-26 02:07 | 8.02222 | 106.70192 | 44808 ft | 496 kts | 353° |
| 2026-04-26 02:08 | 8.09035 | 106.69469 | 44622 ft | 495 kts | 352° |
| 2026-04-26 02:08 | 8.12503 | 106.69100 | 44071 ft | 499 kts | 352° |
| 2026-04-26 02:08 | 8.15950 | 106.68735 | 43530 ft | 498 kts | 353° |
| 2026-04-26 02:08 | 8.19389 | 106.68370 | 42984 ft | 497 kts | 353° |
| 2026-04-26 02:09 | 8.22806 | 106.68008 | 42438 ft | 495 kts | 352° |
| 2026-04-26 02:09 | 8.26261 | 106.67641 | 41891 ft | 495 kts | 352° |
| 2026-04-26 02:09 | 8.29680 | 106.67278 | 41346 ft | 495 kts | 352° |
| 2026-04-26 02:09 | 8.33093 | 106.66915 | 40801 ft | 495 kts | 353° |
| 2026-04-26 02:10 | 8.36545 | 106.66549 | 40276 ft | 496 kts | 353° |
| 2026-04-26 02:10 | 8.39985 | 106.66183 | 39731 ft | 497 kts | 353° |
| 2026-04-26 02:10 | 8.43451 | 106.65815 | 39180 ft | 497 kts | 353° |
| 2026-04-26 02:10 | 8.46871 | 106.65452 | 38633 ft | 496 kts | 353° |
| 2026-04-26 02:11 | 8.50291 | 106.65088 | 38115 ft | 496 kts | 353° |
| 2026-04-26 02:11 | 8.53765 | 106.64719 | 37568 ft | 496 kts | 353° |
| 2026-04-26 02:11 | 8.57211 | 106.64352 | 37020 ft | 496 kts | 353° |
| 2026-04-26 02:11 | 8.60631 | 106.63989 | 36478 ft | 496 kts | 353° |
| 2026-04-26 02:12 | 8.64091 | 106.63621 | 35926 ft | 496 kts | 353° |
| 2026-04-26 02:12 | 8.67506 | 106.63258 | 35383 ft | 497 kts | 353° |
| 2026-04-26 02:12 | 8.70963 | 106.62890 | 34828 ft | 497 kts | 353° |
| 2026-04-26 02:12 | 8.74425 | 106.62646 | 34270 ft | 498 kts | 359° |
| 2026-04-26 02:13 | 8.77882 | 106.62686 | 33738 ft | 500 kts | 1° |
| 2026-04-26 02:13 | 8.81395 | 106.62730 | 33171 ft | 502 kts | 1° |
| 2026-04-26 02:13 | 8.84855 | 106.62771 | 32619 ft | 502 kts | 1° |
| 2026-04-26 02:13 | 8.88394 | 106.62811 | 32097 ft | 504 kts | 1° |
| 2026-04-26 02:14 | 8.91876 | 106.62851 | 31549 ft | 506 kts | 1° |
| 2026-04-26 02:14 | 8.95426 | 106.62892 | 30988 ft | 507 kts | 1° |
| 2026-04-26 02:14 | 8.98958 | 106.62932 | 30428 ft | 500 kts | 1° |
| 2026-04-26 02:14 | 9.02361 | 106.62970 | 29878 ft | 485 kts | 1° |
| 2026-04-26 02:15 | 9.05689 | 106.63007 | 29350 ft | 475 kts | 1° |
| 2026-04-26 02:15 | 9.09023 | 106.63045 | 28825 ft | 471 kts | 1° |
| 2026-04-26 02:15 | 9.12302 | 106.63083 | 28319 ft | 471 kts | 1° |
| 2026-04-26 02:15 | 9.15573 | 106.63120 | 27810 ft | 468 kts | 1° |
| 2026-04-26 02:16 | 9.18793 | 106.63155 | 27296 ft | 465 kts | 1° |
| 2026-04-26 02:16 | 9.22025 | 106.63192 | 26784 ft | 461 kts | 1° |
| 2026-04-26 02:16 | 9.25215 | 106.63228 | 26272 ft | 457 kts | 1° |
| 2026-04-26 02:16 | 9.28390 | 106.63264 | 25769 ft | 452 kts | 2° |
| 2026-04-26 02:17 | 9.31558 | 106.63300 | 25262 ft | 449 kts | 2° |
| 2026-04-26 02:17 | 9.34675 | 106.63335 | 24766 ft | 446 kts | 2° |
| 2026-04-26 02:17 | 9.37743 | 106.63370 | 24277 ft | 442 kts | 2° |
| 2026-04-26 02:17 | 9.40797 | 106.63599 | 23782 ft | 436 kts | 9° |
| 2026-04-26 02:18 | 9.43789 | 106.64068 | 23311 ft | 434 kts | 10° |
| 2026-04-26 02:18 | 9.46772 | 106.64533 | 22828 ft | 431 kts | 10° |
| 2026-04-26 02:18 | 9.49735 | 106.64992 | 22350 ft | 427 kts | 10° |
| 2026-04-26 02:18 | 9.52672 | 106.65448 | 21876 ft | 424 kts | 10° |
| 2026-04-26 02:19 | 9.55590 | 106.65900 | 21409 ft | 422 kts | 10° |
| 2026-04-26 02:19 | 9.58464 | 106.66344 | 20946 ft | 420 kts | 10° |
| 2026-04-26 02:19 | 9.61378 | 106.66796 | 20478 ft | 418 kts | 10° |
| 2026-04-26 02:19 | 9.64253 | 106.67241 | 20014 ft | 416 kts | 10° |
| 2026-04-26 02:20 | 9.67108 | 106.67683 | 19552 ft | 414 kts | 10° |
| 2026-04-26 02:20 | 9.69941 | 106.68121 | 19096 ft | 412 kts | 10° |
| 2026-04-26 02:20 | 9.72781 | 106.68562 | 18636 ft | 411 kts | 9° |
| 2026-04-26 02:20 | 9.75620 | 106.69001 | 18187 ft | 409 kts | 9° |
| 2026-04-26 02:21 | 9.78425 | 106.69436 | 17730 ft | 407 kts | 9° |
| 2026-04-26 02:21 | 9.81214 | 106.69868 | 17274 ft | 405 kts | 9° |
| 2026-04-26 02:21 | 9.83984 | 106.70297 | 16836 ft | 402 kts | 9° |
| 2026-04-26 02:21 | 9.86774 | 106.70730 | 16386 ft | 399 kts | 9° |
| 2026-04-26 02:22 | 9.89487 | 106.71150 | 15958 ft | 396 kts | 9° |
| 2026-04-26 02:22 | 9.92223 | 106.71574 | 15505 ft | 393 kts | 9° |
| 2026-04-26 02:22 | 9.94928 | 106.71993 | 15072 ft | 390 kts | 9° |
| 2026-04-26 02:22 | 9.97595 | 106.72407 | 14639 ft | 388 kts | 9° |
| 2026-04-26 02:23 | 10.00278 | 106.72823 | 14200 ft | 385 kts | 9° |
| 2026-04-26 02:23 | 10.02906 | 106.73231 | 13805 ft | 383 kts | 9° |
| 2026-04-26 02:23 | 10.05544 | 106.73641 | 13374 ft | 380 kts | 9° |
| 2026-04-26 02:23 | 10.08134 | 106.74043 | 12943 ft | 377 kts | 9° |
| 2026-04-26 02:24 | 10.10749 | 106.74448 | 12536 ft | 375 kts | 9° |
| 2026-04-26 02:24 | 10.13315 | 106.74696 | 12100 ft | 374 kts | 358° |
| 2026-04-26 02:24 | 10.15799 | 106.73934 | 11925 ft | 374 kts | 332° |
| 2026-04-26 02:24 | 10.17924 | 106.72405 | 11950 ft | 377 kts | 324° |
| 2026-04-26 02:25 | 10.20031 | 106.70752 | 11953 ft | 379 kts | 323° |
| 2026-04-26 02:25 | 10.22118 | 106.69099 | 11813 ft | 381 kts | 323° |
| 2026-04-26 02:25 | 10.24200 | 106.67442 | 11461 ft | 380 kts | 323° |
| 2026-04-26 02:25 | 10.26267 | 106.65794 | 11063 ft | 377 kts | 323° |
| 2026-04-26 02:26 | 10.28305 | 106.64168 | 10659 ft | 370 kts | 323° |
| 2026-04-26 02:26 | 10.30308 | 106.62570 | 10243 ft | 359 kts | 323° |
| 2026-04-26 02:26 | 10.32248 | 106.61022 | 9853 ft | 349 kts | 323° |
| 2026-04-26 02:26 | 10.34130 | 106.59519 | 9473 ft | 339 kts | 323° |
| 2026-04-26 02:27 | 10.35972 | 106.58049 | 9098 ft | 331 kts | 324° |
| 2026-04-26 02:27 | 10.37748 | 106.56631 | 8735 ft | 323 kts | 324° |
| 2026-04-26 02:27 | 10.39514 | 106.55222 | 8380 ft | 316 kts | 324° |
| 2026-04-26 02:27 | 10.41222 | 106.53858 | 8038 ft | 310 kts | 324° |
| 2026-04-26 02:28 | 10.42892 | 106.52523 | 7691 ft | 304 kts | 324° |
| 2026-04-26 02:28 | 10.44545 | 106.51204 | 7353 ft | 298 kts | 324° |
| 2026-04-26 02:28 | 10.46100 | 106.49827 | 7009 ft | 295 kts | 310° |
| 2026-04-26 02:28 | 10.46872 | 106.47954 | 6932 ft | 291 kts | 281° |
| 2026-04-26 02:29 | 10.47141 | 106.45912 | 6927 ft | 293 kts | 278° |
| 2026-04-26 02:29 | 10.47380 | 106.43872 | 6913 ft | 294 kts | 277° |
| 2026-04-26 02:29 | 10.47614 | 106.41791 | 6912 ft | 295 kts | 277° |
| 2026-04-26 02:29 | 10.47843 | 106.39730 | 6910 ft | 295 kts | 277° |
| 2026-04-26 02:30 | 10.48071 | 106.37673 | 6912 ft | 293 kts | 278° |
| 2026-04-26 02:30 | 10.48753 | 106.35763 | 6908 ft | 290 kts | 307° |
| 2026-04-26 02:30 | 10.50040 | 106.34190 | 6921 ft | 289 kts | 313° |
| 2026-04-26 02:30 | 10.51378 | 106.32644 | 6908 ft | 289 kts | 313° |
| 2026-04-26 02:31 | 10.52699 | 106.31120 | 6906 ft | 288 kts | 313° |
| 2026-04-26 02:31 | 10.54061 | 106.29627 | 6897 ft | 287 kts | 323° |
| 2026-04-26 02:31 | 10.55851 | 106.28848 | 6912 ft | 279 kts | 356° |
| 2026-04-26 02:31 | 10.57729 | 106.29192 | 6912 ft | 274 kts | 29° |
| 2026-04-26 02:32 | 10.59112 | 106.30486 | 6844 ft | 272 kts | 54° |
| 2026-04-26 02:32 | 10.60180 | 106.32059 | 6612 ft | 272 kts | 57° |
| 2026-04-26 02:32 | 10.61215 | 106.33679 | 6334 ft | 269 kts | 58° |
| 2026-04-26 02:32 | 10.62202 | 106.35268 | 6050 ft | 267 kts | 58° |
| 2026-04-26 02:33 | 10.63174 | 106.36860 | 5761 ft | 266 kts | 59° |
| 2026-04-26 02:33 | 10.64149 | 106.38469 | 5466 ft | 263 kts | 59° |
| 2026-04-26 02:33 | 10.65093 | 106.40035 | 5181 ft | 259 kts | 59° |
| 2026-04-26 02:33 | 10.66015 | 106.41569 | 4984 ft | 246 kts | 59° |
| 2026-04-26 02:34 | 10.66893 | 106.43031 | 4648 ft | 237 kts | 59° |
| 2026-04-26 02:34 | 10.67736 | 106.44434 | 4371 ft | 228 kts | 58° |
| 2026-04-26 02:34 | 10.68875 | 106.45475 | 4108 ft | 221 kts | 31° |
| 2026-04-26 02:34 | 10.70226 | 106.46182 | 3875 ft | 214 kts | 29° |
| 2026-04-26 02:35 | 10.71547 | 106.46862 | 3643 ft | 208 kts | 30° |
| 2026-04-26 02:35 | 10.72809 | 106.47510 | 3418 ft | 202 kts | 30° |
| 2026-04-26 02:35 | 10.74059 | 106.48153 | 3192 ft | 197 kts | 29° |
| 2026-04-26 02:35 | 10.75243 | 106.48823 | 2968 ft | 189 kts | 43° |
| 2026-04-26 02:36 | 10.75929 | 106.49886 | 2810 ft | 181 kts | 70° |
| 2026-04-26 02:36 | 10.76359 | 106.51082 | 2609 ft | 180 kts | 70° |
| 2026-04-26 02:36 | 10.76797 | 106.52265 | 2396 ft | 175 kts | 70° |
| 2026-04-26 02:36 | 10.77198 | 106.53331 | 2215 ft | 146 kts | 70° |
| 2026-04-26 02:37 | 10.77532 | 106.54213 | 2008 ft | 126 kts | 70° |
| 2026-04-26 02:37 | 10.77843 | 106.55035 | 1850 ft | 124 kts | 70° |
| 2026-04-26 02:37 | 10.78153 | 106.55853 | 1703 ft | 123 kts | 70° |
| 2026-04-26 02:37 | 10.78461 | 106.56663 | 1549 ft | 125 kts | 70° |
| 2026-04-26 02:38 | 10.78774 | 106.57488 | 1389 ft | 124 kts | 70° |
| 2026-04-26 02:38 | 10.79085 | 106.58305 | 1230 ft | 125 kts | 70° |
| 2026-04-26 02:38 | 10.79399 | 106.59132 | 1070 ft | 125 kts | 70° |
| 2026-04-26 02:38 | 10.79711 | 106.59954 | 910 ft | 125 kts | 70° |
| 2026-04-26 02:39 | 10.80025 | 106.60780 | 750 ft | 125 kts | 70° |
| 2026-04-26 02:39 | 10.80342 | 106.61613 | 591 ft | 125 kts | 70° |
| 2026-04-26 02:39 | 10.80652 | 106.62431 | 431 ft | 125 kts | 70° |
| 2026-04-26 02:39 | 10.80968 | 106.63261 | 273 ft | 125 kts | 70° |
| 2026-04-26 02:40 | 10.81281 | 106.64086 | 116 ft | 125 kts | 70° |
| 2026-04-26 02:40 | 10.81584 | 106.64877 | 27 ft | 110 kts | 70° |
| 2026-04-26 02:40 | 10.81785 | 106.65421 | 28 ft | 36 kts | 70° |
| 2026-04-26 02:40 | 10.81788 | 106.65604 | 28 ft | 7 kts | 113° |
| 2026-04-26 02:41 | 10.81787 | 106.65608 | 28 ft | 2 kts | 113° |
| 2026-04-26 02:41 | 10.81763 | 106.65662 | 28 ft | 14 kts | 113° |
| 2026-04-26 02:41 | 10.81706 | 106.65797 | 28 ft | 26 kts | 113° |
| 2026-04-26 02:41 | 10.81698 | 106.65939 | 28 ft | 24 kts | 70° |
| 2026-04-26 02:42 | 10.81773 | 106.66146 | 28 ft | 36 kts | 70° |
| 2026-04-26 02:42 | 10.81865 | 106.66380 | 28 ft | 33 kts | 69° |
| 2026-04-26 02:42 | 10.81949 | 106.66452 | 28 ft | 3 kts | 10° |
| 2026-04-26 02:42 | 10.81957 | 106.66454 | 28 ft | 0 kts | 9° |